Cedarville, Washington
Current Conditions -  °F | °C
As of 7:55 AM on Saturday 20 Dec 2014 (Local Time) from KCLS Reporting Station
Overcast Overcast  
Wind Chill: 42°   Ceiling: 1300
Heat Index: 46°   Visibility: 10mi
Dew Point: 46°   Wind: 9mph
Humidity: 100%   Direction: 190°S
Pressure: 29.63"   Gusts: NA
Location:  46.8553°N, 123.315°W
Report Text: KCLS 201555Z AUTO 19008KT 160V220 10SM OVC013 08/08 A2963 RMK AO2
Loading
Personal Weather Stations






























Interactive Weather Map New forecast layout! Learn more

10-Day Weather Forecast

Advertisements
Track Severe Weather on mobile